createdAt,value
2017-11-30T00:01:27.460Z,97867.63
2017-11-30T00:03:55.787Z,97860.23
2017-11-30T00:06:24.049Z,97855.95
2017-11-30T00:08:52.313Z,97861.03
2017-11-30T00:11:20.708Z,97850.28
2017-11-30T00:13:48.985Z,97853.77
2017-11-30T00:16:17.290Z,97855.78
2017-11-30T00:18:45.575Z,97856.41
2017-11-30T00:21:13.848Z,97854.37
2017-11-30T00:23:42.140Z,97848.91
2017-11-30T00:26:10.404Z,97844.48
2017-11-30T00:28:38.694Z,97828.50
2017-11-30T00:31:06.953Z,97838.63
2017-11-30T00:33:35.257Z,97839.95
2017-11-30T00:36:04.189Z,97823.74
2017-11-30T00:38:32.496Z,97842.66
2017-11-30T00:41:00.813Z,97838.61
2017-11-30T00:43:31.511Z,97837.14
2017-11-30T00:45:59.778Z,97841.70
2017-11-30T00:48:28.057Z,97841.44
2017-11-30T00:50:56.385Z,97844.92
2017-11-30T00:53:24.708Z,97831.88
2017-11-30T00:55:52.961Z,97843.12
2017-11-30T00:58:21.265Z,97828.77
2017-11-30T01:00:49.567Z,97829.51
2017-11-30T01:03:17.799Z,97831.89
2017-11-30T01:05:46.099Z,97826.80
2017-11-30T01:08:14.364Z,97838.13
2017-11-30T01:10:42.644Z,97823.19
2017-11-30T01:13:10.910Z,97833.61
2017-11-30T01:15:39.212Z,97838.36
2017-11-30T01:18:07.484Z,97845.83
2017-11-30T01:20:35.789Z,97845.68
2017-11-30T01:23:04.065Z,97839.84
2017-11-30T01:25:32.357Z,97841.78
2017-11-30T01:28:00.634Z,97829.13
2017-11-30T01:30:28.880Z,97837.11
2017-11-30T01:32:57.160Z,97840.84
2017-11-30T01:35:25.440Z,97842.43
2017-11-30T01:37:53.745Z,97845.05
2017-11-30T01:40:22.003Z,97841.27
2017-11-30T01:42:50.290Z,97839.20
2017-11-30T01:45:18.568Z,97840.45
2017-11-30T01:47:46.851Z,97844.75
2017-11-30T01:50:15.160Z,97846.52
2017-11-30T01:52:43.453Z,97838.42
2017-11-30T01:55:11.774Z,97839.97
2017-11-30T01:57:40.025Z,97841.82
2017-11-30T02:00:08.306Z,97843.19
2017-11-30T02:02:36.768Z,97843.58
2017-11-30T02:05:05.205Z,97845.86
2017-11-30T02:07:33.474Z,97840.18
2017-11-30T02:10:01.782Z,97838.90
2017-11-30T02:12:30.040Z,97825.45
2017-11-30T02:14:58.510Z,97842.29
2017-11-30T02:17:26.814Z,97837.74
2017-11-30T02:19:55.202Z,97833.26
2017-11-30T02:22:23.469Z,97828.33
2017-11-30T02:24:51.744Z,97840.84
2017-11-30T02:27:20.021Z,97834.30
2017-11-30T02:29:48.318Z,97838.41
2017-11-30T02:32:16.584Z,97829.45
2017-11-30T02:34:44.879Z,97836.33
2017-11-30T02:37:13.418Z,97834.05
2017-11-30T02:39:41.697Z,97823.89
2017-11-30T02:42:10.003Z,97829.42
2017-11-30T02:44:38.269Z,97825.53
2017-11-30T02:47:06.565Z,97824.81
2017-11-30T02:49:34.833Z,97819.48
2017-11-30T02:52:03.124Z,97813.94
2017-11-30T02:54:31.596Z,97817.66
2017-11-30T02:56:59.913Z,97826.17
2017-11-30T02:59:28.159Z,97820.27
2017-11-30T03:01:56.446Z,97805.60
2017-11-30T03:04:24.733Z,97814.55
2017-11-30T03:06:53.433Z,97819.21
2017-11-30T03:09:22.379Z,97817.39
2017-11-30T03:11:50.665Z,97820.52
2017-11-30T03:14:20.150Z,97813.63
2017-11-30T03:16:48.424Z,97815.76
2017-11-30T03:19:16.721Z,97811.14
2017-11-30T03:21:44.985Z,97816.48
2017-11-30T03:24:13.293Z,97819.84
2017-11-30T03:26:41.566Z,97822.64
2017-11-30T03:29:09.845Z,97818.67
2017-11-30T03:31:38.145Z,97819.30
2017-11-30T03:34:06.647Z,97825.48
2017-11-30T03:36:35.667Z,97823.91
2017-11-30T03:39:03.966Z,97824.77
2017-11-30T03:41:32.209Z,97822.03
2017-11-30T03:44:01.052Z,97823.08
2017-11-30T03:46:29.333Z,97822.81
2017-11-30T03:48:58.420Z,97815.81
2017-11-30T03:51:26.716Z,97814.75
2017-11-30T03:53:54.956Z,97820.22
2017-11-30T03:56:23.206Z,97824.61
2017-11-30T03:58:51.857Z,97822.32
2017-11-30T04:01:20.103Z,97823.66
2017-11-30T04:03:48.400Z,97829.58
2017-11-30T04:06:16.719Z,97829.30
2017-11-30T04:08:45.038Z,97818.19
2017-11-30T04:11:13.251Z,97829.64
2017-11-30T04:13:41.521Z,97842.00
2017-11-30T04:16:09.782Z,97835.80
2017-11-30T04:18:38.074Z,97844.14
2017-11-30T04:21:06.365Z,97845.22
2017-11-30T04:23:34.624Z,97850.88
2017-11-30T04:26:02.904Z,97848.27
2017-11-30T04:28:31.189Z,97831.38
2017-11-30T04:30:59.433Z,97849.75
2017-11-30T04:33:27.676Z,97847.45
2017-11-30T04:35:55.961Z,97848.27
2017-11-30T04:38:24.229Z,97844.02
2017-11-30T04:40:52.508Z,97848.98
2017-11-30T04:43:20.809Z,97845.54
2017-11-30T04:45:49.096Z,97849.34
2017-11-30T04:48:17.372Z,97848.17
2017-11-30T04:50:45.678Z,97854.02
2017-11-30T04:53:13.949Z,97848.53
2017-11-30T04:55:42.239Z,97849.84
2017-11-30T04:58:10.514Z,97847.00
2017-11-30T05:00:38.774Z,97835.87
2017-11-30T05:03:07.113Z,97842.88
2017-11-30T05:05:35.368Z,97837.23
2017-11-30T05:08:04.251Z,97843.74
2017-11-30T05:10:32.496Z,97841.78
2017-11-30T05:13:00.748Z,97847.13
2017-11-30T05:15:29.045Z,97839.83
2017-11-30T05:17:57.312Z,97845.14
2017-11-30T05:20:25.577Z,97846.17
2017-11-30T05:22:53.835Z,97850.81
2017-11-30T05:25:22.122Z,97851.78
2017-11-30T05:27:50.426Z,97851.98
2017-11-30T05:30:18.695Z,97846.30
2017-11-30T05:32:46.942Z,97854.17
2017-11-30T05:35:15.217Z,97848.59
2017-11-30T05:37:43.505Z,97856.20
2017-11-30T05:40:11.811Z,97853.53
2017-11-30T05:42:40.082Z,97856.83
2017-11-30T05:45:08.340Z,97855.62
2017-11-30T05:47:36.621Z,97859.20
2017-11-30T05:50:04.893Z,97864.31
2017-11-30T05:52:33.181Z,97856.82
2017-11-30T05:55:01.442Z,97857.22
2017-11-30T05:57:29.750Z,97847.67
2017-11-30T05:59:58.022Z,97853.52
2017-11-30T06:02:26.308Z,97856.91
2017-11-30T06:04:54.574Z,97856.59
2017-11-30T06:07:22.815Z,97851.41
2017-11-30T06:09:51.160Z,97846.08
2017-11-30T06:12:19.904Z,97850.75
2017-11-30T06:14:48.327Z,97852.13
2017-11-30T06:17:16.569Z,97852.17
2017-11-30T06:19:44.867Z,97847.06
2017-11-30T06:22:13.150Z,97852.64
2017-11-30T06:24:41.428Z,97844.94
2017-11-30T06:27:09.811Z,97855.33
2017-11-30T06:29:38.072Z,97852.22
2017-11-30T06:32:06.350Z,97854.13
2017-11-30T06:34:34.642Z,97851.31
2017-11-30T06:37:02.956Z,97854.45
2017-11-30T06:39:31.249Z,97851.83
2017-11-30T06:41:59.555Z,97851.59
2017-11-30T06:44:27.868Z,97849.67
2017-11-30T06:46:56.155Z,97849.42
2017-11-30T06:49:24.440Z,97817.20
2017-11-30T06:51:52.709Z,97856.05
2017-11-30T06:54:21.017Z,97851.95
2017-11-30T06:56:49.260Z,97851.84
2017-11-30T06:59:17.555Z,97858.54
2017-11-30T07:01:45.840Z,97858.48
2017-11-30T07:04:14.175Z,97859.30
2017-11-30T07:06:42.442Z,97857.66
2017-11-30T07:09:10.685Z,97854.00
2017-11-30T07:11:39.025Z,97868.19
2017-11-30T07:14:07.592Z,97867.93
2017-11-30T07:16:35.936Z,97869.05
2017-11-30T07:19:04.980Z,97876.45
2017-11-30T07:21:33.276Z,97880.38
2017-11-30T07:24:01.585Z,97885.09
2017-11-30T07:26:29.894Z,97884.25
2017-11-30T07:28:58.168Z,97885.23
2017-11-30T07:31:26.489Z,97883.59
2017-11-30T07:33:54.828Z,97889.92
2017-11-30T07:36:23.785Z,97892.33
2017-11-30T07:38:52.056Z,97886.00
2017-11-30T07:41:20.318Z,97892.94
2017-11-30T07:43:48.620Z,97889.25
2017-11-30T07:46:16.916Z,97895.02
2017-11-30T07:48:45.225Z,97895.25
2017-11-30T07:51:13.461Z,97891.63
2017-11-30T07:53:42.234Z,97885.95
2017-11-30T07:56:10.499Z,97887.33
2017-11-30T07:58:38.968Z,97869.56
2017-11-30T08:01:07.260Z,97871.73
2017-11-30T08:03:35.607Z,97884.55
2017-11-30T08:06:04.187Z,97876.94
2017-11-30T08:08:32.440Z,97879.17
2017-11-30T08:11:00.737Z,97873.18
2017-11-30T08:13:29.081Z,97872.55
2017-11-30T08:15:57.389Z,97877.27
2017-11-30T08:18:25.690Z,97859.66
2017-11-30T08:20:54.072Z,97871.32
2017-11-30T08:23:22.349Z,97869.69
2017-11-30T08:25:50.640Z,97871.66
2017-11-30T08:28:18.940Z,97870.94
2017-11-30T08:30:47.282Z,97871.64
2017-11-30T08:33:15.553Z,97873.67
2017-11-30T08:35:43.841Z,97879.23
2017-11-30T08:38:12.130Z,97874.23
2017-11-30T08:40:40.381Z,97883.83
2017-11-30T08:43:08.665Z,97868.98
2017-11-30T08:45:36.942Z,97888.44
2017-11-30T08:48:05.225Z,97888.64
2017-11-30T08:50:34.315Z,97879.49
2017-11-30T08:53:02.631Z,97895.69
2017-11-30T08:55:31.089Z,97898.75
2017-11-30T08:57:59.371Z,97900.08
2017-11-30T09:00:27.699Z,97891.54
2017-11-30T09:02:55.978Z,97897.94
2017-11-30T09:05:24.777Z,97898.58
2017-11-30T09:07:53.060Z,97899.30
2017-11-30T09:10:21.390Z,97891.19
2017-11-30T09:12:49.770Z,97890.75
2017-11-30T09:15:18.113Z,97900.81
2017-11-30T09:17:46.406Z,97889.37
2017-11-30T09:20:14.808Z,97896.27
2017-11-30T09:22:43.100Z,97898.19
2017-11-30T09:25:11.859Z,97898.88
2017-11-30T09:27:40.307Z,97907.77
2017-11-30T09:30:08.609Z,97896.52
2017-11-30T09:32:36.916Z,97890.73
2017-11-30T09:35:05.749Z,97883.53
2017-11-30T09:37:34.019Z,97888.63
2017-11-30T09:40:02.360Z,97888.58
2017-11-30T09:42:30.668Z,97887.95
2017-11-30T09:44:59.009Z,97899.03
2017-11-30T09:47:27.349Z,97889.58
2017-11-30T09:49:55.635Z,97890.61
2017-11-30T09:52:23.991Z,97889.11
2017-11-30T09:54:52.349Z,97887.34
2017-11-30T09:57:20.850Z,97887.02
2017-11-30T09:59:49.096Z,97891.83
2017-11-30T10:02:17.468Z,97887.34
2017-11-30T10:04:45.792Z,97885.47
2017-11-30T10:07:14.058Z,97883.42
2017-11-30T10:09:42.418Z,97881.31
2017-11-30T10:12:10.672Z,97879.22
2017-11-30T10:14:39.040Z,97873.38
2017-11-30T10:17:07.323Z,97876.94
2017-11-30T10:19:35.616Z,97876.22
2017-11-30T10:22:03.908Z,97872.70
2017-11-30T10:24:32.329Z,97880.72
2017-11-30T10:27:00.669Z,97880.28
2017-11-30T10:29:29.344Z,97875.66
2017-11-30T10:31:57.616Z,97871.85
2017-11-30T10:34:25.913Z,97843.25
2017-11-30T10:36:54.203Z,97872.84
2017-11-30T10:39:22.477Z,97869.58
2017-11-30T10:41:50.835Z,97865.38
2017-11-30T10:44:19.186Z,97872.09
2017-11-30T10:46:47.502Z,97865.83
2017-11-30T10:49:16.380Z,97856.05
2017-11-30T10:51:44.689Z,97861.54
2017-11-30T10:54:12.985Z,97865.27
2017-11-30T10:56:41.417Z,97867.05
2017-11-30T10:59:09.712Z,97854.63
2017-11-30T11:01:39.000Z,97849.83
2017-11-30T11:04:07.310Z,97858.14
2017-11-30T11:06:36.280Z,97847.23
2017-11-30T11:09:05.398Z,97841.88
2017-11-30T11:11:33.706Z,97842.58
2017-11-30T11:14:02.021Z,97847.41
2017-11-30T11:16:30.345Z,97846.24
2017-11-30T11:18:58.949Z,97843.24
2017-11-30T11:21:27.224Z,97842.16
2017-11-30T11:23:55.826Z,97827.64
2017-11-30T11:26:24.120Z,97839.85
2017-11-30T11:28:52.466Z,97837.50
2017-11-30T11:31:20.728Z,97835.81
2017-11-30T11:33:49.034Z,97833.31
2017-11-30T11:36:17.374Z,97833.07
2017-11-30T11:38:45.756Z,97836.37
2017-11-30T11:41:14.040Z,97834.27
2017-11-30T11:43:42.318Z,97831.66
2017-11-30T11:46:10.619Z,97851.09
2017-11-30T11:48:38.881Z,97827.21
2017-11-30T11:51:07.169Z,97822.88
2017-11-30T11:53:36.081Z,97818.57
2017-11-30T11:56:04.659Z,97820.66
2017-11-30T11:58:32.937Z,97821.20
2017-11-30T12:01:01.205Z,97818.16
2017-11-30T12:03:29.497Z,97817.66
2017-11-30T12:05:58.385Z,97807.28
2017-11-30T12:08:27.184Z,97815.29
2017-11-30T12:10:55.504Z,97792.45
2017-11-30T12:13:23.859Z,97802.95
2017-11-30T12:15:52.134Z,97793.11
2017-11-30T12:18:20.448Z,97774.77
2017-11-30T12:20:48.737Z,97795.22
2017-11-30T12:23:17.087Z,97796.15
2017-11-30T12:25:45.397Z,97780.95
2017-11-30T12:28:13.682Z,97796.81
2017-11-30T12:30:41.968Z,97789.31
2017-11-30T12:33:10.228Z,97788.41
2017-11-30T12:35:39.421Z,97790.50
2017-11-30T12:38:07.684Z,97767.84
2017-11-30T12:40:36.034Z,97788.40
2017-11-30T12:43:05.089Z,97761.66
2017-11-30T12:45:33.416Z,97772.16
2017-11-30T12:48:01.734Z,97753.29
2017-11-30T12:50:29.997Z,97781.45
2017-11-30T12:52:58.260Z,97774.37
2017-11-30T12:55:26.597Z,97775.29
2017-11-30T12:57:54.875Z,97772.13
2017-11-30T13:00:23.171Z,97761.41
2017-11-30T13:02:51.455Z,97779.24
2017-11-30T13:05:19.799Z,97777.80
2017-11-30T13:07:48.104Z,97776.33
2017-11-30T13:10:16.384Z,97779.62
2017-11-30T13:12:44.860Z,97777.39
2017-11-30T13:15:13.162Z,97771.98
2017-11-30T13:17:41.444Z,97774.84
2017-11-30T13:20:09.793Z,97772.86
2017-11-30T13:22:38.481Z,97771.41
2017-11-30T13:25:06.790Z,97773.28
2017-11-30T13:27:36.167Z,97762.80
2017-11-30T13:30:04.424Z,97770.13
2017-11-30T13:32:33.638Z,97767.00
2017-11-30T13:35:03.238Z,97777.43
2017-11-30T13:37:31.648Z,97767.08
2017-11-30T13:40:00.822Z,97773.00
2017-11-30T13:42:29.095Z,97770.56
2017-11-30T13:44:57.390Z,97770.05
2017-11-30T13:47:25.634Z,97761.12
2017-11-30T13:49:54.171Z,97754.83
2017-11-30T13:52:22.513Z,97762.97
2017-11-30T13:54:50.867Z,97751.32
2017-11-30T13:57:19.157Z,97768.64
2017-11-30T13:59:47.432Z,97760.16
2017-11-30T14:02:15.714Z,97764.34
2017-11-30T14:04:44.063Z,97756.36
2017-11-30T14:07:12.338Z,97764.23
2017-11-30T14:09:40.620Z,97770.13
2017-11-30T14:12:08.935Z,97777.44
2017-11-30T14:14:37.266Z,97773.52
2017-11-30T14:17:05.894Z,97745.19
2017-11-30T14:19:34.207Z,97774.43
2017-11-30T14:22:02.489Z,97776.88
2017-11-30T14:24:30.801Z,97773.92
2017-11-30T14:26:59.103Z,97774.19
2017-11-30T14:29:27.488Z,97779.16
2017-11-30T14:31:55.806Z,97779.66
2017-11-30T14:34:24.072Z,97769.28
2017-11-30T14:36:52.339Z,97782.80
2017-11-30T14:39:21.323Z,97776.48
2017-11-30T14:41:50.829Z,97779.41
2017-11-30T14:44:19.195Z,97776.78
2017-11-30T14:46:47.554Z,97784.48
2017-11-30T14:49:15.835Z,97767.55
2017-11-30T14:51:44.991Z,97785.41
2017-11-30T14:54:13.269Z,97781.47
2017-11-30T14:56:41.563Z,97772.76
2017-11-30T14:59:09.871Z,97800.80
2017-11-30T15:01:38.258Z,97796.88
2017-11-30T15:04:06.528Z,97805.14
2017-11-30T15:06:34.791Z,97791.63
2017-11-30T15:09:03.274Z,97800.28
2017-11-30T15:11:31.630Z,97778.83
2017-11-30T15:14:00.021Z,97805.94
2017-11-30T15:16:28.396Z,97808.80
2017-11-30T15:18:57.538Z,97807.15
2017-11-30T15:21:27.264Z,97794.53
2017-11-30T15:23:55.536Z,97831.63
2017-11-30T15:26:24.439Z,97817.05
2017-11-30T15:28:52.795Z,97813.77
2017-11-30T15:31:21.067Z,97814.20
2017-11-30T15:33:50.069Z,97823.06
2017-11-30T15:36:18.416Z,97818.84
2017-11-30T15:38:46.744Z,97810.81
2017-11-30T15:41:15.064Z,97818.45
2017-11-30T15:43:43.344Z,97810.55
2017-11-30T15:46:11.693Z,97829.30
2017-11-30T15:48:39.977Z,97832.23
2017-11-30T15:51:08.647Z,97815.19
2017-11-30T15:53:36.905Z,97894.50
2017-11-30T15:56:05.312Z,97829.45
2017-11-30T15:58:34.380Z,97826.20
2017-11-30T16:01:02.695Z,97817.02
2017-11-30T16:03:31.059Z,97830.03
2017-11-30T16:05:59.373Z,97834.92
2017-11-30T16:08:27.619Z,97831.00
2017-11-30T16:10:55.890Z,97838.08
2017-11-30T16:13:24.471Z,97841.56
2017-11-30T16:15:52.853Z,97837.70
2017-11-30T16:18:21.128Z,97837.88
2017-11-30T16:20:49.394Z,97844.12
2017-11-30T16:23:17.731Z,97843.16
2017-11-30T16:25:45.983Z,97816.33
2017-11-30T16:28:14.260Z,97844.76
2017-11-30T16:30:42.511Z,97845.23
2017-11-30T16:33:10.786Z,97847.41
2017-11-30T16:35:39.054Z,97846.97
2017-11-30T16:38:07.336Z,97854.67
2017-11-30T16:40:35.612Z,97853.44
2017-11-30T16:43:03.883Z,97852.23
2017-11-30T16:45:32.203Z,97866.03
2017-11-30T16:48:00.497Z,97843.00
2017-11-30T16:50:28.802Z,97857.75
2017-11-30T16:52:58.121Z,97863.73
2017-11-30T16:55:26.403Z,97865.36
2017-11-30T16:57:55.764Z,97861.05
2017-11-30T17:00:23.995Z,97865.16
2017-11-30T17:02:52.278Z,97865.79
2017-11-30T17:05:20.565Z,97859.60
2017-11-30T17:07:48.868Z,97865.64
2017-11-30T17:10:17.162Z,97864.97
2017-11-30T17:12:45.456Z,97870.67
2017-11-30T17:15:13.747Z,97864.30
2017-11-30T17:17:42.012Z,97875.38
2017-11-30T17:20:10.346Z,97878.05
2017-11-30T17:22:38.705Z,97877.30
2017-11-30T17:25:07.079Z,97877.74
2017-11-30T17:27:35.343Z,97881.83
2017-11-30T17:30:03.627Z,97871.69
2017-11-30T17:32:31.951Z,97883.95
2017-11-30T17:35:00.263Z,97881.06
2017-11-30T17:37:28.530Z,97876.06
2017-11-30T17:39:56.946Z,97886.73
2017-11-30T17:42:25.186Z,97884.34
2017-11-30T17:44:53.526Z,97883.81
2017-11-30T17:47:21.800Z,97880.13
2017-11-30T17:49:50.156Z,97879.14
2017-11-30T17:52:18.416Z,97880.20
2017-11-30T17:54:46.664Z,97879.61
2017-11-30T17:57:14.984Z,97864.67
2017-11-30T17:59:43.246Z,97875.17
2017-11-30T18:02:11.543Z,97886.47
2017-11-30T18:04:39.905Z,97894.77
2017-11-30T18:07:08.192Z,97892.02
2017-11-30T18:09:36.468Z,97895.36
2017-11-30T18:12:05.442Z,97895.62
2017-11-30T18:14:33.720Z,97892.16
2017-11-30T18:17:02.127Z,97895.55
2017-11-30T18:19:30.423Z,97896.53
2017-11-30T18:21:58.728Z,97891.62
2017-11-30T18:24:27.027Z,97902.16
2017-11-30T18:26:55.791Z,97901.44
2017-11-30T18:29:24.091Z,97909.70
2017-11-30T18:31:52.376Z,97905.78
2017-11-30T18:34:20.687Z,97908.94
2017-11-30T18:36:48.937Z,97908.00
2017-11-30T18:39:17.213Z,97905.76
2017-11-30T18:41:45.563Z,97914.82
2017-11-30T18:44:13.833Z,97913.17
2017-11-30T18:46:42.107Z,97921.13
2017-11-30T18:49:10.479Z,97913.34
2017-11-30T18:51:38.870Z,97913.74
2017-11-30T18:54:07.156Z,97910.31
2017-11-30T18:56:35.440Z,97916.24
2017-11-30T18:59:03.694Z,97904.84
2017-11-30T19:01:31.995Z,97920.11
2017-11-30T19:04:00.259Z,97910.05
2017-11-30T19:06:28.626Z,97911.05
2017-11-30T19:08:56.865Z,97917.84
2017-11-30T19:11:25.239Z,97898.44
2017-11-30T19:13:53.519Z,97920.80
2017-11-30T19:16:21.820Z,97918.78
2017-11-30T19:18:50.091Z,97913.55
2017-11-30T19:21:18.354Z,97920.41
2017-11-30T19:23:46.656Z,97925.28
2017-11-30T19:26:14.942Z,97932.67
2017-11-30T19:28:43.211Z,97932.75
2017-11-30T19:31:11.993Z,97929.80
2017-11-30T19:33:41.209Z,97935.59
2017-11-30T19:36:09.499Z,97943.78
2017-11-30T19:38:37.788Z,97929.83
2017-11-30T19:41:06.074Z,97928.52
2017-11-30T19:43:34.335Z,97943.67
2017-11-30T19:46:02.646Z,97945.11
2017-11-30T19:48:30.936Z,97949.70
2017-11-30T19:50:59.239Z,97953.91
2017-11-30T19:53:27.515Z,97947.16
2017-11-30T19:55:55.766Z,97951.95
2017-11-30T19:58:24.054Z,97926.95
2017-11-30T20:00:52.317Z,97962.36
2017-11-30T20:03:20.599Z,97960.80
2017-11-30T20:05:48.880Z,97956.52
2017-11-30T20:08:17.153Z,97960.33
2017-11-30T20:10:45.464Z,97964.86
2017-11-30T20:13:13.741Z,97960.22
2017-11-30T20:15:42.018Z,97961.62
2017-11-30T20:18:10.322Z,97968.81
2017-11-30T20:20:38.619Z,97965.77
2017-11-30T20:23:06.935Z,97974.43
2017-11-30T20:25:35.221Z,97972.47
2017-11-30T20:28:03.479Z,97974.08
2017-11-30T20:30:31.767Z,97971.86
2017-11-30T20:33:00.063Z,97971.36
2017-11-30T20:35:28.358Z,97981.22
2017-11-30T20:37:56.671Z,97976.46
2017-11-30T20:40:24.963Z,97976.00
2017-11-30T20:42:53.228Z,97971.83
2017-11-30T20:45:21.599Z,97979.70
2017-11-30T20:47:50.455Z,97976.83
2017-11-30T20:50:18.729Z,97963.55
2017-11-30T20:52:47.086Z,98002.63
2017-11-30T20:55:15.396Z,97977.02
2017-11-30T20:57:43.660Z,97969.75
2017-11-30T21:00:12.223Z,97966.70
2017-11-30T21:02:40.520Z,97963.40
2017-11-30T21:05:08.819Z,97960.24
2017-11-30T21:07:37.182Z,97960.72
2017-11-30T21:10:05.458Z,97945.78
2017-11-30T21:12:33.743Z,97942.87
2017-11-30T21:15:02.047Z,97952.92
2017-11-30T21:17:30.310Z,97952.05
2017-11-30T21:19:58.605Z,97952.92
2017-11-30T21:22:26.882Z,97955.98
2017-11-30T21:24:55.210Z,97959.71
2017-11-30T21:27:23.532Z,97954.07
2017-11-30T21:29:52.714Z,97952.59
2017-11-30T21:32:20.968Z,97962.39
2017-11-30T21:34:49.268Z,97962.47
2017-11-30T21:37:17.547Z,97962.58
2017-11-30T21:39:45.850Z,97962.97
2017-11-30T21:42:14.100Z,97959.48
2017-11-30T21:44:42.455Z,97952.45
2017-11-30T21:47:10.774Z,97964.17
2017-11-30T21:49:39.068Z,97966.56
2017-11-30T21:52:07.339Z,97964.71
2017-11-30T21:54:36.506Z,97967.81
2017-11-30T21:57:05.773Z,97965.83
2017-11-30T21:59:34.055Z,97969.78
2017-11-30T22:02:02.420Z,97970.30
2017-11-30T22:04:30.679Z,97970.62
2017-11-30T22:06:58.972Z,97970.30
2017-11-30T22:09:27.258Z,97977.42
2017-11-30T22:11:55.928Z,97977.59
2017-11-30T22:14:24.186Z,97975.81
2017-11-30T22:16:52.449Z,97974.19
2017-11-30T22:19:21.540Z,97974.77
2017-11-30T22:21:49.791Z,97973.09
2017-11-30T22:24:18.100Z,97977.38
2017-11-30T22:26:46.363Z,97977.11
2017-11-30T22:29:14.644Z,97968.03
2017-11-30T22:31:42.923Z,97975.03
2017-11-30T22:34:11.207Z,97977.41
2017-11-30T22:36:39.486Z,97975.91
2017-11-30T22:39:08.091Z,97977.72
2017-11-30T22:41:36.410Z,97977.80
2017-11-30T22:44:05.852Z,97983.74
2017-11-30T22:46:34.179Z,97974.59
2017-11-30T22:49:02.420Z,97970.66
2017-11-30T22:51:30.702Z,97987.59
2017-11-30T22:53:58.974Z,97990.27
2017-11-30T22:56:27.299Z,97989.80
2017-11-30T22:58:55.575Z,97983.81
2017-11-30T23:01:23.870Z,97988.47
2017-11-30T23:03:52.180Z,97990.63
2017-11-30T23:06:20.456Z,97991.28
2017-11-30T23:08:48.751Z,97997.23
2017-11-30T23:11:17.728Z,97986.66
2017-11-30T23:13:45.991Z,97996.49
2017-11-30T23:16:14.272Z,97983.15
2017-11-30T23:18:42.555Z,98000.26
2017-11-30T23:21:10.820Z,97993.54
2017-11-30T23:23:39.105Z,98001.31
2017-11-30T23:26:07.376Z,98005.08
2017-11-30T23:28:35.916Z,98002.02
2017-11-30T23:31:05.020Z,98003.61
2017-11-30T23:33:33.342Z,97995.05
2017-11-30T23:36:01.610Z,98001.66
2017-11-30T23:38:30.062Z,98003.92
2017-11-30T23:40:58.319Z,98009.37
2017-11-30T23:43:26.599Z,98005.97
2017-11-30T23:45:54.904Z,98013.03
2017-11-30T23:48:23.180Z,98004.77
2017-11-30T23:50:51.477Z,98020.02
2017-11-30T23:53:20.443Z,98008.83
2017-11-30T23:55:48.714Z,98018.47
2017-11-30T23:58:16.979Z,98016.20
